Terminal Aerodrome Forecast
Issued by NWS

Home | Current Version | Previous Version | Text Only | Print | Product List | Glossary On
Versions: 1 2 3 4 5 6 7 8 9 10 11 12 13 14 15 16 17 18 19 20 21
619
FTUS43 KICT 261122
TAFHUT
TAF
KHUT 261122Z 2612/2712 VRB03KT 3SM BR SKC
      TEMPO 2612/2613 1SM BR
     FM261400 22006KT P6SM SCT200
     FM262000 34007KT P6SM BKN120
     FM270000 35010KT P6SM OVC100
     FM270400 34008KT P6SM FEW250=

USA.gov is the U.S. government's official web portal to all federal, state and local government web resources and services.